Robbins, California
Current Conditions -  °F | °C
As of 1:53 PM on Wednesday 22 Oct 2014 (Local Time) from KSMF Reporting Station
Broken Clouds Broken Clouds  
Wind Chill: 73°   Ceiling: 30000
Heat Index: 73°   Visibility: 10mi
Dew Point: 42°   Wind: 0mph
Humidity: 33%   Direction: NA
Pressure: 30.03"   Gusts: NA
Location:  38.87°N, 121.71°W
Report Text: KSMF 222053Z 00000KT 10SM FEW200 SCT250 BKN300 23/06 A3003 RMK AO2 SLP170 T02280056 58010
Loading
Personal Weather Stations






























Interactive Weather Map
Tropical Storm Tracking
New forecast layout! Learn more

10-Day Weather Forecast

Advertisements
Track Severe Weather on mobile